Time;durP1;ratioP1;P1;durP2;ratioP2;P2;SDS_P1;SDS_P2;PMS_P1;PMS_P2;Temp;Humidity;BMP_temperature;BMP_pressure;BME280_temperature;BME280_humidity;BME280_pressure;Samples;Min_cycle;Max_cycle;Signal;HPM_P1;HPM_P2
2023/01/22 00:01:25;;;;;;;0.80;0.80;;;-0.10;99.90;;;;;;5021635;27;20452;-90
2023/01/22 00:03:52;;;;;;;0.80;0.80;;;0.00;99.90;;;;;;5051807;27;20054;-90
2023/01/22 00:06:19;;;;;;;0.80;0.80;;;0.00;99.90;;;;;;5048388;27;20400;-90
2023/01/22 00:08:46;;;;;;;0.70;0.70;;;0.00;99.90;;;;;;5061580;27;20726;-90
2023/01/22 00:11:19;;;;;;;0.80;0.80;;;0.00;99.90;;;;;;5032354;27;20555;-89
2023/01/22 00:13:45;;;;;;;0.88;0.88;;;-0.20;99.90;;;;;;5058969;27;20051;-90
2023/01/22 00:16:13;;;;;;;0.80;0.80;;;-0.20;99.90;;;;;;5037426;27;20049;-90
2023/01/22 00:18:43;;;;;;;0.80;0.80;;;-0.10;99.90;;;;;;5013535;27;20043;-90
2023/01/22 00:21:26;;;;;;;0.80;0.80;;;0.10;99.90;;;;;;5035095;27;20050;-91
2023/01/22 00:23:54;;;;;;;;;;;-0.20;99.90;;;;;;5023117;27;20141;-92
2023/01/22 00:26:22;;;;;;;0.80;0.80;;;-0.20;99.90;;;;;;5031422;27;20021;-91
2023/01/22 00:28:53;;;;;;;0.80;0.80;;;-0.30;99.90;;;;;;5044501;27;20047;-91
2023/01/22 00:31:25;;;;;;;0.80;0.80;;;-0.10;99.90;;;;;;5029488;27;20042;-90
2023/01/22 00:33:51;;;;;;;0.80;0.80;;;-0.10;99.90;;;;;;5040741;27;20076;-91
2023/01/22 00:36:23;;;;;;;0.80;0.80;;;-0.20;99.90;;;;;;5039467;27;20581;-89
2023/01/22 00:38:58;;;;;;;0.80;0.80;;;0.00;99.90;;;;;;5036487;27;20049;-91
2023/01/22 00:41:30;;;;;;;0.80;0.80;;;-0.20;99.90;;;;;;5054649;27;20051;-91
2023/01/22 00:43:55;;;;;;;0.80;0.80;;;-0.10;99.90;;;;;;5043124;27;20730;-90
2023/01/22 00:46:22;;;;;;;0.80;0.80;;;-0.20;99.90;;;;;;5035611;27;20450;-91
2023/01/22 00:48:53;;;;;;;0.80;0.80;;;-0.30;99.90;;;;;;5062075;27;20073;-91
2023/01/22 00:51:19;;;;;;;0.80;0.80;;;-0.40;99.90;;;;;;5054563;27;20039;-91
2023/01/22 00:53:45;;;;;;;0.80;0.80;;;-0.30;99.90;;;;;;5016032;27;20081;-91
2023/01/22 00:56:14;;;;;;;0.80;0.80;;;-0.40;99.90;;;;;;5044533;27;20035;-91
2023/01/22 00:58:40;;;;;;;0.80;0.80;;;-0.30;99.90;;;;;;5050412;27;20129;-91
2023/01/22 01:01:06;;;;;;;0.70;0.70;;;-0.30;99.90;;;;;;5031987;27;20039;-90
2023/01/22 01:03:33;;;;;;;0.80;0.80;;;-0.40;99.90;;;;;;5035265;27;20047;-90
2023/01/22 01:06:14;;;;;;;0.80;0.80;;;-0.30;99.90;;;;;;5052301;27;21154;-92
2023/01/22 01:08:45;;;;;;;0.85;0.85;;;-0.10;99.90;;;;;;5047299;27;20062;-92
2023/01/22 01:11:20;;;;;;;0.75;0.75;;;-0.10;99.90;;;;;;5040392;27;20112;-91
2023/01/22 01:13:50;;;;;;;0.80;0.80;;;0.00;99.90;;;;;;5065281;27;20126;-91
2023/01/22 01:16:20;;;;;;;0.80;0.80;;;0.00;99.90;;;;;;5044125;27;20053;-91
2023/01/22 01:18:46;;;;;;;0.80;0.80;;;0.20;99.90;;;;;;5060683;27;20039;-91
2023/01/22 01:21:13;;;;;;;0.80;0.80;;;0.10;99.90;;;;;;5039564;27;20036;-93
2023/01/22 01:23:39;;;;;;;0.80;0.80;;;0.30;99.90;;;;;;5045228;27;20039;-90
2023/01/22 01:26:07;;;;;;;0.80;0.80;;;0.40;99.90;;;;;;5059799;27;20487;-92
2023/01/22 01:28:40;;;;;;;0.80;0.80;;;0.40;99.90;;;;;;5046893;27;20039;-92
2023/01/22 01:31:09;;;;;;;0.73;0.73;;;0.30;99.90;;;;;;5048653;27;20891;-91
2023/01/22 01:33:35;;;;;;;0.80;0.80;;;0.50;99.90;;;;;;5044895;27;20695;-91
2023/01/22 01:36:06;;;;;;;0.80;0.80;;;0.40;99.90;;;;;;5061978;27;20108;-92
2023/01/22 01:38:33;;;;;;;0.80;0.80;;;0.70;99.90;;;;;;5050581;27;20227;-92
2023/01/22 01:41:02;;;;;;;0.80;0.80;;;0.50;99.90;;;;;;5045198;28;20051;-90
2023/01/22 01:43:35;;;;;;;0.80;0.80;;;0.60;99.90;;;;;;5055317;28;20073;-92
2023/01/22 01:46:03;;;;;;;0.80;0.80;;;0.50;99.90;;;;;;5055235;28;20098;-91
2023/01/22 01:48:42;;;;;;;0.80;0.80;;;0.70;99.90;;;;;;5036122;28;20064;-90
2023/01/22 01:51:19;;;;;;;0.80;0.80;;;0.80;99.90;;;;;;5047491;28;20489;-92
2023/01/22 01:53:47;;;;;;;0.80;0.80;;;0.80;99.90;;;;;;5053067;28;20629;-91
2023/01/22 01:56:30;;;;;;;0.80;0.80;;;0.80;99.90;;;;;;5043504;28;20500;-92
2023/01/22 01:59:01;;;;;;;0.80;0.80;;;0.70;99.90;;;;;;5035918;28;20499;-92
2023/01/22 02:01:28;;;;;;;0.80;0.80;;;0.60;99.90;;;;;;5052850;28;20040;-92
2023/01/22 02:03:55;;;;;;;0.80;0.80;;;0.80;99.90;;;;;;5032284;28;20413;-91
2023/01/22 02:06:20;;;;;;;0.80;0.80;;;0.60;99.90;;;;;;5030854;28;20059;-91
2023/01/22 02:08:52;;;;;;;0.70;0.70;;;0.70;99.90;;;;;;5040846;28;20050;-92
2023/01/22 02:11:21;;;;;;;0.73;0.73;;;0.80;99.90;;;;;;5045389;28;20031;-91
2023/01/22 02:14:00;;;;;;;0.80;0.80;;;0.80;99.90;;;;;;5031653;27;20142;-90
2023/01/22 02:16:26;;;;;;;0.80;0.80;;;0.70;99.90;;;;;;5049615;27;20074;-92
2023/01/22 02:18:52;;;;;;;0.70;0.70;;;0.90;99.90;;;;;;5046495;27;20047;-91
2023/01/22 02:21:37;;;;;;;0.80;0.80;;;0.80;99.90;;;;;;5048246;27;20862;-91
2023/01/22 02:24:07;;;;;;;0.80;0.80;;;0.70;99.90;;;;;;5042736;27;20039;-92
2023/01/22 02:26:36;;;;;;;0.80;0.80;;;0.90;99.90;;;;;;5045049;27;20040;-90
2023/01/22 02:29:04;;;;;;;0.80;0.80;;;0.90;99.90;;;;;;5040164;27;20112;-91
2023/01/22 02:31:41;;;;;;;0.80;0.80;;;0.90;99.90;;;;;;5038157;27;20047;-91
2023/01/22 02:34:08;;;;;;;0.80;0.80;;;0.80;99.90;;;;;;5045925;27;20047;-91
2023/01/22 02:36:47;;;;;;;0.80;0.80;;;0.90;99.90;;;;;;5039905;27;20057;-92
2023/01/22 02:39:15;;;;;;;0.80;0.80;;;1.00;99.90;;;;;;5047360;27;20153;-91
2023/01/22 02:42:02;;;;;;;0.80;0.80;;;0.90;99.90;;;;;;5013839;28;20094;-91
2023/01/22 02:44:33;;;;;;;0.80;0.80;;;0.90;99.90;;;;;;5022514;28;20040;-91
2023/01/22 02:47:02;;;;;;;0.80;0.80;;;1.00;99.90;;;;;;5025787;27;20645;-91
2023/01/22 02:49:39;;;;;;;0.80;0.80;;;1.00;99.90;;;;;;5022836;27;20040;-91
2023/01/22 02:52:08;;;;;;;0.80;0.80;;;1.00;99.90;;;;;;4989318;27;20127;-91
2023/01/22 02:54:34;;;;;;;0.80;0.80;;;1.00;99.90;;;;;;5027674;27;20082;-92
2023/01/22 02:57:05;;;;;;;0.80;0.80;;;1.00;99.90;;;;;;5023719;27;20888;-92
2023/01/22 02:59:34;;;;;;;1.00;1.00;;;1.00;99.90;;;;;;5031464;27;20043;-91
2023/01/22 03:02:03;;;;;;;0.80;0.80;;;1.00;99.90;;;;;;5021093;27;20462;-91
2023/01/22 03:04:34;;;;;;;0.80;0.80;;;1.00;99.90;;;;;;5024055;27;20058;-90
2023/01/22 03:07:05;;;;;;;0.80;0.80;;;1.00;99.90;;;;;;5002005;27;20469;-90
2023/01/22 03:09:31;;;;;;;0.80;0.80;;;1.00;99.90;;;;;;5036515;27;20289;-91
2023/01/22 03:11:58;;;;;;;0.90;0.90;;;1.00;99.90;;;;;;5001879;27;20522;-91
2023/01/22 03:22:46;;;;;;;1.02;1.02;;;1.10;99.90;;;;;;5027277;27;20055;-91
2023/01/22 03:25:16;;;;;;;0.80;0.80;;;1.10;99.90;;;;;;4991875;28;20368;-91
2023/01/22 03:28:07;;;;;;;0.80;0.80;;;1.00;99.90;;;;;;5018501;27;20042;-91
2023/01/22 03:30:31;;;;;;;0.80;0.80;;;1.10;99.90;;;;;;5031732;27;20043;-90
2023/01/22 03:32:56;;;;;;;0.80;0.80;;;1.00;99.90;;;;;;5029276;27;20038;-88
2023/01/22 03:35:22;;;;;;;0.80;0.80;;;1.10;99.90;;;;;;4994314;27;20440;-91
2023/01/22 03:37:48;;;;;;;0.90;0.90;;;1.10;99.90;;;;;;5010984;27;20076;-91
2023/01/22 03:40:35;;;;;;;0.80;0.80;;;1.10;99.90;;;;;;5034065;27;20054;-90
2023/01/22 03:43:03;;;;;;;0.80;0.80;;;1.20;99.90;;;;;;5020452;27;20047;-91
2023/01/22 03:45:32;;;;;;;0.80;0.80;;;1.20;99.90;;;;;;5035310;27;20085;-92
2023/01/22 03:47:57;;;;;;;0.80;0.80;;;1.10;99.90;;;;;;5016851;27;20074;-91
2023/01/22 03:50:26;;;;;;;0.90;0.90;;;1.10;99.90;;;;;;5032996;27;20492;-91
2023/01/22 03:52:52;;;;;;;0.80;0.80;;;1.20;99.90;;;;;;5031007;27;20397;-92
2023/01/22 03:55:20;;;;;;;0.82;0.82;;;1.20;99.90;;;;;;5022979;27;20073;-91
2023/01/22 03:57:49;;;;;;;0.80;0.80;;;1.10;99.90;;;;;;5016023;27;20337;-91
2023/01/22 04:00:18;;;;;;;0.90;0.90;;;1.10;99.90;;;;;;5029926;27;20039;-91
2023/01/22 04:02:48;;;;;;;0.80;0.80;;;1.20;99.90;;;;;;5017646;27;20409;-91
2023/01/22 04:05:30;;;;;;;0.80;0.80;;;1.20;99.90;;;;;;5029606;27;20043;-91
2023/01/22 04:07:59;;;;;;;0.80;0.80;;;1.10;99.90;;;;;;5019643;28;20047;-92
2023/01/22 04:10:30;;;;;;;0.80;0.80;;;1.20;99.90;;;;;;5035445;27;20050;-91
2023/01/22 04:12:56;;;;;;;0.80;0.80;;;1.20;99.90;;;;;;5015075;27;20354;-90
2023/01/22 04:15:24;;;;;;;0.80;0.80;;;1.10;99.90;;;;;;5025552;27;20521;-91
2023/01/22 04:17:51;;;;;;;0.80;0.80;;;1.20;99.90;;;;;;5032189;27;20467;-91
2023/01/22 04:20:19;;;;;;;0.80;0.80;;;1.20;99.90;;;;;;5051426;27;20138;-90
2023/01/22 04:23:02;;;;;;;0.82;0.82;;;1.20;99.90;;;;;;5016323;27;20121;-90
2023/01/22 04:25:28;;;;;;;0.80;0.80;;;1.20;99.90;;;;;;5038348;27;20713;-90
2023/01/22 04:27:57;;;;;;;0.80;0.80;;;1.20;99.90;;;;;;5010851;27;20043;-91
2023/01/22 04:30:23;;;;;;;0.80;0.80;;;1.30;99.90;;;;;;5035035;27;20047;-91
2023/01/22 04:32:49;;;;;;;0.80;0.80;;;1.10;99.90;;;;;;5021379;27;20046;-90
2023/01/22 04:35:15;;;;;;;0.80;0.80;;;1.20;99.90;;;;;;5030912;27;20038;-91
2023/01/22 04:37:48;;;;;;;0.80;0.80;;;1.20;99.90;;;;;;5027315;27;20120;-91
2023/01/22 04:40:19;;;;;;;0.90;0.90;;;1.20;99.90;;;;;;5028174;27;20064;-90
2023/01/22 04:42:45;;;;;;;0.85;0.85;;;1.20;99.90;;;;;;5032759;27;20378;-90
2023/01/22 04:45:11;;;;;;;0.90;0.90;;;1.20;99.90;;;;;;5033807;27;20054;-92
2023/01/22 04:47:45;;;;;;;0.80;0.80;;;1.20;99.90;;;;;;5031533;27;20051;-91
2023/01/22 04:50:15;;;;;;;0.90;0.90;;;1.20;99.90;;;;;;5029066;27;20057;-92
2023/01/22 04:52:41;;;;;;;0.80;0.80;;;1.10;99.90;;;;;;5031866;27;20047;-91
2023/01/22 04:55:17;;;;;;;0.80;0.80;;;1.20;99.90;;;;;;5031573;27;20744;-91
2023/01/22 04:57:46;;;;;;;0.80;0.80;;;1.20;99.90;;;;;;5046659;27;20051;-91
2023/01/22 05:00:15;;;;;;;0.90;0.90;;;1.20;99.90;;;;;;5029401;27;20047;-91
2023/01/22 05:02:41;;;;;;;0.82;0.82;;;1.20;99.90;;;;;;5028283;27;20513;-91
2023/01/22 05:05:13;;;;;;;0.80;0.80;;;1.20;99.90;;;;;;5024788;27;20563;-90
2023/01/22 05:07:39;;;;;;;0.80;0.80;;;1.20;99.90;;;;;;5023498;28;20819;-90
2023/01/22 05:10:23;;;;;;;0.80;0.80;;;1.20;99.90;;;;;;5015762;27;20121;-90
2023/01/22 05:12:49;;;;;;;;;;;1.20;99.90;;;;;;5019911;27;20215;-91
2023/01/22 05:15:18;;;;;;;0.90;0.90;;;1.20;99.90;;;;;;5029232;27;20166;-91
2023/01/22 05:17:44;;;;;;;0.80;0.80;;;1.20;99.90;;;;;;5027729;27;20054;-92
2023/01/22 05:20:10;;;;;;;0.80;0.80;;;1.20;99.90;;;;;;5033345;27;20573;-89
2023/01/22 05:22:39;;;;;;;0.88;0.88;;;1.20;99.90;;;;;;5033136;27;20473;-90
2023/01/22 05:25:05;;;;;;;0.80;0.80;;;1.20;99.90;;;;;;5037541;27;20104;-91
2023/01/22 05:27:39;;;;;;;0.90;0.90;;;1.20;99.90;;;;;;5006354;28;20055;-90
2023/01/22 05:30:05;;;;;;;;;;;1.20;99.90;;;;;;5031537;27;20856;-91
2023/01/22 05:32:40;;;;;;;0.80;0.80;;;1.20;99.90;;;;;;5046511;27;20659;-91
2023/01/22 05:35:07;;;;;;;0.90;0.90;;;1.20;99.90;;;;;;5032134;28;20043;-91
2023/01/22 05:37:35;;;;;;;0.70;0.70;;;1.20;99.90;;;;;;5020933;28;20862;-91
2023/01/22 05:40:04;;;;;;;0.80;0.80;;;1.20;99.90;;;;;;5010355;28;20058;-91
2023/01/22 05:42:30;;;;;;;0.80;0.80;;;1.10;99.90;;;;;;5037142;28;20043;-90
2023/01/22 05:44:56;;;;;;;0.80;0.80;;;1.10;99.90;;;;;;5022032;28;20043;-91
2023/01/22 05:47:22;;;;;;;0.80;0.80;;;1.10;99.90;;;;;;5022745;28;20047;-91
2023/01/22 05:49:48;;;;;;;0.80;0.80;;;1.10;99.90;;;;;;5038970;27;20575;-91
2023/01/22 05:52:19;;;;;;;0.80;0.80;;;1.10;99.90;;;;;;5039383;27;20035;-90
2023/01/22 05:54:48;;;;;;;0.80;0.80;;;1.10;99.90;;;;;;5029469;27;20598;-90
2023/01/22 05:57:14;;;;;;;0.80;0.80;;;1.10;99.90;;;;;;5038291;27;20382;-91
2023/01/22 05:59:45;;;;;;;0.80;0.80;;;1.00;99.90;;;;;;5057305;27;20476;-92
2023/01/22 06:02:11;;;;;;;0.80;0.80;;;1.10;99.90;;;;;;5045217;27;20050;-91
2023/01/22 06:04:39;;;;;;;0.80;0.80;;;1.00;99.90;;;;;;5032898;27;20586;-91
2023/01/22 06:07:05;;;;;;;0.80;0.80;;;1.10;99.90;;;;;;5029256;27;20365;-90
2023/01/22 06:09:31;;;;;;;0.80;0.80;;;1.10;99.90;;;;;;5030784;27;20543;-90
2023/01/22 06:11:57;;;;;;;0.80;0.80;;;1.10;99.90;;;;;;5045281;27;20689;-91
2023/01/22 06:14:25;;;;;;;0.90;0.90;;;1.10;99.90;;;;;;5019477;27;20047;-91
2023/01/22 06:16:51;;;;;;;0.90;0.90;;;1.10;99.90;;;;;;5030358;27;20538;-91
2023/01/22 06:19:17;;;;;;;0.80;0.80;;;1.10;99.90;;;;;;5051967;27;20051;-90
2023/01/22 06:21:43;;;;;;;0.80;0.80;;;1.20;99.90;;;;;;5043428;27;20407;-91
2023/01/22 06:24:09;;;;;;;0.80;0.80;;;1.20;99.90;;;;;;5042760;27;20126;-91
2023/01/22 06:26:35;;;;;;;0.80;0.80;;;1.20;99.90;;;;;;5042589;27;20511;-91
2023/01/22 06:29:04;;;;;;;0.80;0.80;;;1.20;99.90;;;;;;5040448;27;20154;-91
2023/01/22 06:31:31;;;;;;;0.80;0.80;;;1.20;99.90;;;;;;5059197;27;20039;-91
2023/01/22 06:34:30;;;;;;;;;;;;;;;;;;;;;
2023/01/22 06:36:59;;;;;;;0.80;0.80;;;1.20;99.90;;;;;;5056627;27;20082;-90
2023/01/22 06:39:31;;;;;;;0.80;0.80;;;1.10;99.90;;;;;;5045490;27;20092;-91
2023/01/22 06:41:59;;;;;;;0.80;0.80;;;1.20;99.90;;;;;;5040930;27;20051;-90
2023/01/22 06:44:30;;;;;;;0.80;0.80;;;1.20;99.90;;;;;;5055030;27;20047;-92
2023/01/22 06:46:56;;;;;;;0.80;0.80;;;1.10;99.90;;;;;;5028038;27;20048;-91
2023/01/22 06:49:25;;;;;;;0.95;0.95;;;1.10;99.90;;;;;;5042187;27;20054;-93
2023/01/22 06:51:50;;;;;;;0.80;0.80;;;1.10;99.90;;;;;;5040772;27;20153;-91
2023/01/22 06:54:16;;;;;;;0.80;0.80;;;1.20;99.90;;;;;;5040449;27;20051;-91
2023/01/22 06:56:42;;;;;;;0.80;0.80;;;1.20;99.90;;;;;;5034278;27;20043;-91
2023/01/22 06:59:08;;;;;;;0.90;0.90;;;1.20;99.90;;;;;;5030083;27;20127;-92
2023/01/22 07:01:34;;;;;;;0.80;0.80;;;1.20;99.90;;;;;;5039588;27;20548;-91
2023/01/22 07:04:02;;;;;;;0.80;0.80;;;1.10;99.90;;;;;;5041448;27;20074;-91
2023/01/22 07:06:31;;;;;;;0.80;0.80;;;1.10;99.90;;;;;;5042948;27;20220;-91
2023/01/22 07:09:02;;;;;;;0.80;0.80;;;1.20;99.90;;;;;;5039346;27;20093;-90
2023/01/22 07:11:28;;;;;;;0.80;0.80;;;1.10;99.90;;;;;;5048151;27;20046;-92
2023/01/22 07:13:54;;;;;;;0.80;0.80;;;1.20;99.90;;;;;;5039304;27;20047;-92
2023/01/22 07:16:20;;;;;;;0.80;0.80;;;1.20;99.90;;;;;;5031966;27;20036;-91
2023/01/22 07:18:49;;;;;;;0.88;0.88;;;1.20;99.90;;;;;;5033098;27;20339;-89
2023/01/22 07:21:15;;;;;;;0.80;0.80;;;1.10;99.90;;;;;;5007780;27;20164;-88
2023/01/22 07:23:43;;;;;;;0.80;0.80;;;1.10;99.90;;;;;;5057787;27;20908;-91
2023/01/22 07:26:13;;;;;;;0.80;0.80;;;1.20;99.90;;;;;;5044754;27;20485;-90
2023/01/22 07:28:39;;;;;;;0.80;0.80;;;1.20;99.90;;;;;;5035412;27;20559;-91
2023/01/22 07:31:09;;;;;;;0.80;0.80;;;1.20;99.90;;;;;;5046624;27;20041;-91
2023/01/22 07:33:35;;;;;;;0.80;0.80;;;1.20;99.90;;;;;;5043666;27;20055;-91
2023/01/22 07:36:01;;;;;;;0.90;0.90;;;1.20;99.90;;;;;;5036749;27;20039;-91
2023/01/22 07:38:30;;;;;;;0.82;0.82;;;1.20;99.90;;;;;;5041825;27;20450;-91
2023/01/22 07:41:04;;;;;;;0.80;0.80;;;1.20;99.90;;;;;;5044881;27;20383;-92
2023/01/22 07:43:31;;;;;;;0.80;0.80;;;1.20;99.90;;;;;;5049184;27;20043;-92
2023/01/22 07:46:10;;;;;;;0.90;0.90;;;1.20;99.90;;;;;;5047622;27;20070;-91
2023/01/22 07:48:36;;;;;;;0.90;0.90;;;1.20;99.90;;;;;;5052589;27;20089;-90
2023/01/22 07:51:05;;;;;;;0.80;0.80;;;1.20;99.90;;;;;;5054595;27;20104;-93
2023/01/22 07:53:32;;;;;;;0.80;0.80;;;1.20;99.90;;;;;;5048498;27;20057;-92
2023/01/22 07:55:59;;;;;;;0.85;0.85;;;1.20;99.90;;;;;;5055301;27;20054;-91
2023/01/22 07:58:25;;;;;;;0.80;0.80;;;1.30;99.90;;;;;;5063139;27;20043;-94
2023/01/22 08:00:54;;;;;;;0.90;0.90;;;1.20;99.90;;;;;;5055568;27;20301;-90
2023/01/22 08:03:23;;;;;;;0.90;0.90;;;1.20;99.90;;;;;;5041152;27;20100;-95
2023/01/22 08:05:49;;;;;;;0.90;0.90;;;1.20;99.90;;;;;;5044017;27;20563;-90
2023/01/22 08:08:26;;;;;;;0.80;0.80;;;1.30;99.90;;;;;;5042242;27;20068;-90
2023/01/22 08:10:57;;;;;;;0.80;0.80;;;1.20;99.90;;;;;;5051296;27;20991;-91
2023/01/22 08:13:25;;;;;;;0.80;0.80;;;1.30;99.90;;;;;;5047635;27;20072;-91
2023/01/22 08:15:54;;;;;;;0.80;0.80;;;1.30;99.90;;;;;;5051141;27;20051;-92
2023/01/22 08:18:23;;;;;;;0.80;0.80;;;1.30;99.90;;;;;;5058338;27;20053;-91
2023/01/22 08:20:58;;;;;;;0.80;0.80;;;1.30;99.90;;;;;;5049566;27;20093;-93
2023/01/22 08:23:23;;;;;;;0.80;0.80;;;1.30;99.90;;;;;;5035495;27;20075;-91
2023/01/22 08:25:54;;;;;;;0.80;0.80;;;1.30;99.90;;;;;;5046617;27;20146;-91
2023/01/22 08:28:23;;;;;;;0.80;0.80;;;1.30;99.90;;;;;;5047149;27;20079;-91
2023/01/22 08:30:55;;;;;;;0.90;0.90;;;1.40;99.90;;;;;;5046939;27;20043;-92
2023/01/22 08:33:24;;;;;;;0.80;0.80;;;1.40;99.90;;;;;;5044494;27;20052;-91
2023/01/22 08:35:50;;;;;;;0.90;0.90;;;1.40;99.90;;;;;;5017818;27;20520;-90
2023/01/22 08:38:16;;;;;;;0.80;0.80;;;1.40;99.90;;;;;;5053324;27;20455;-92
2023/01/22 08:40:42;;;;;;;0.90;0.90;;;1.40;99.90;;;;;;5050959;27;21001;-89
2023/01/22 08:43:08;;;;;;;0.80;0.80;;;1.50;99.90;;;;;;5026927;27;20063;-90
2023/01/22 08:45:37;;;;;;;0.90;0.90;;;1.50;99.90;;;;;;5045808;27;20639;-89
2023/01/22 08:48:03;;;;;;;0.90;0.90;;;1.40;99.90;;;;;;5039024;27;20688;-90
2023/01/22 08:50:29;;;;;;;0.85;0.85;;;1.50;99.90;;;;;;5028069;27;20620;-88
2023/01/22 08:52:58;;;;;;;0.90;0.90;;;1.50;99.90;;;;;;5057057;27;20046;-91
2023/01/22 08:55:26;;;;;;;0.90;0.90;;;1.50;99.90;;;;;;5054230;27;20039;-90
2023/01/22 08:57:56;;;;;;;0.80;0.80;;;1.50;99.90;;;;;;5051703;28;20150;-89
2023/01/22 09:00:23;;;;;;;0.90;0.90;;;1.50;99.90;;;;;;5034442;27;20080;-92
2023/01/22 09:02:49;;;;;;;0.82;0.82;;;1.50;99.90;;;;;;5051273;27;20043;-93
2023/01/22 09:05:20;;;;;;;0.80;0.80;;;1.50;99.90;;;;;;5043868;27;20350;-90
2023/01/22 09:07:54;;;;;;;0.90;0.90;;;1.60;99.90;;;;;;5017920;28;20055;-90
2023/01/22 09:10:24;;;;;;;;;;;1.60;99.90;;;;;;5029484;27;20531;-91
2023/01/22 09:12:53;;;;;;;0.80;0.80;;;1.60;99.90;;;;;;5036831;27;19929;-91
2023/01/22 09:15:19;;;;;;;0.80;0.80;;;1.60;99.90;;;;;;5043013;28;20046;-89
2023/01/22 09:17:45;;;;;;;0.90;0.90;;;1.60;99.90;;;;;;5047447;28;20050;-89
2023/01/22 09:20:11;;;;;;;0.80;0.80;;;1.70;99.90;;;;;;5034968;28;20051;-89
2023/01/22 09:22:36;;;;;;;0.80;0.80;;;1.60;99.90;;;;;;5022228;27;20040;-90
2023/01/22 09:25:03;;;;;;;0.80;0.80;;;1.60;99.90;;;;;;5018287;27;20070;-89
2023/01/22 09:27:29;;;;;;;0.88;0.88;;;1.60;99.90;;;;;;5048386;27;20077;-89
2023/01/22 09:29:55;;;;;;;0.90;0.90;;;1.60;99.90;;;;;;5039454;28;20127;-91
2023/01/22 09:32:24;;;;;;;0.80;0.80;;;1.70;99.90;;;;;;5047943;28;20539;-90
2023/01/22 09:34:53;;;;;;;0.80;0.80;;;1.80;99.90;;;;;;5039176;28;20202;-89
2023/01/22 09:37:19;;;;;;;0.80;0.80;;;1.70;99.90;;;;;;5065372;27;20069;-89
2023/01/22 09:39:52;;;;;;;0.80;0.80;;;1.80;99.90;;;;;;5046738;28;20047;-90
2023/01/22 09:42:30;;;;;;;0.80;0.80;;;1.90;99.90;;;;;;5054924;27;20051;-90
2023/01/22 09:45:02;;;;;;;0.80;0.80;;;1.90;99.90;;;;;;5049092;27;20422;-89
2023/01/22 09:47:52;;;;;;;0.80;0.80;;;1.80;99.90;;;;;;5058090;27;20082;-91
2023/01/22 09:50:24;;;;;;;0.80;0.80;;;1.80;99.90;;;;;;5067921;27;20054;-89
2023/01/22 09:52:52;;;;;;;0.80;0.80;;;1.90;99.90;;;;;;5090185;27;20036;-89
2023/01/22 09:55:21;;;;;;;0.85;0.85;;;1.90;99.90;;;;;;5067955;27;20295;-88
2023/01/22 09:57:51;;;;;;;0.80;0.80;;;2.00;99.90;;;;;;5050558;27;20043;-91
2023/01/22 10:00:34;;;;;;;0.80;0.80;;;2.00;99.90;;;;;;5052447;27;20059;-88
2023/01/22 10:03:06;;;;;;;0.80;0.80;;;2.00;99.90;;;;;;5052887;27;20613;-90
2023/01/22 10:05:37;;;;;;;0.80;0.80;;;1.90;99.90;;;;;;5065462;27;20082;-88
2023/01/22 10:08:19;;;;;;;0.80;0.80;;;1.90;99.90;;;;;;5056371;27;20039;-90
2023/01/22 10:10:50;;;;;;;0.80;0.80;;;1.90;99.90;;;;;;5059710;27;20376;-89
2023/01/22 10:13:38;;;;;;;0.80;0.80;;;2.00;99.90;;;;;;5047062;27;20139;-91
2023/01/22 10:16:05;;;;;;;0.70;0.70;;;2.00;99.90;;;;;;5052961;27;20612;-93
2023/01/22 10:18:56;;;;;;;0.80;0.80;;;2.10;99.90;;;;;;5040817;27;20492;-91
2023/01/22 10:21:31;;;;;;;0.80;0.80;;;2.20;99.90;;;;;;5050464;27;20470;-90
2023/01/22 10:23:58;;;;;;;0.80;0.80;;;2.00;99.90;;;;;;5048583;27;20043;-88
2023/01/22 10:27:08;;;;;;;4.65;4.43;;;2.10;99.90;;;;;;5046108;27;20054;-89
2023/01/22 10:29:36;;;;;;;0.80;0.80;;;2.10;99.90;;;;;;4974105;28;20081;-90
2023/01/22 10:32:22;;;;;;;0.80;0.80;;;2.00;99.90;;;;;;5019145;27;21092;-89
2023/01/22 10:35:00;;;;;;;0.80;0.80;;;2.10;99.90;;;;;;5049905;27;20047;-89
2023/01/22 10:37:26;;;;;;;0.80;0.80;;;2.20;99.90;;;;;;5054629;27;20687;-89
2023/01/22 10:39:57;;;;;;;0.80;0.80;;;2.20;99.90;;;;;;5049327;27;20046;-91
2023/01/22 10:42:28;;;;;;;0.80;0.80;;;2.20;99.90;;;;;;5044907;27;20051;-89
2023/01/22 10:44:56;;;;;;;0.80;0.80;;;2.20;99.90;;;;;;5042930;27;20093;-91
2023/01/22 10:47:26;;;;;;;0.80;0.80;;;2.30;99.90;;;;;;5053796;27;20042;-90
2023/01/22 10:50:21;;;;;;;0.80;0.80;;;2.30;99.90;;;;;;5044490;27;20564;-87
2023/01/22 10:52:56;;;;;;;0.80;0.80;;;2.20;99.90;;;;;;5025614;27;20050;-90
2023/01/22 10:55:42;;;;;;;0.80;0.80;;;2.30;99.90;;;;;;5036171;27;20728;-92
2023/01/22 10:58:16;;;;;;;0.80;0.80;;;2.30;99.90;;;;;;5026998;27;20061;-91
2023/01/22 11:00:55;;;;;;;0.80;0.80;;;2.30;99.90;;;;;;5058192;27;20055;-89
2023/01/22 11:03:38;;;;;;;0.80;0.80;;;2.30;99.90;;;;;;5042154;27;20074;-87
2023/01/22 11:06:14;;;;;;;0.80;0.80;;;2.10;99.90;;;;;;5041830;27;20419;-88
2023/01/22 11:08:57;;;;;;;0.75;0.75;;;2.20;99.90;;;;;;5052205;27;20059;-89
2023/01/22 11:11:30;;;;;;;0.80;0.80;;;2.20;99.90;;;;;;5038085;27;20061;-89
2023/01/22 11:14:16;;;;;;;;;;;2.30;99.90;;;;;;5040142;27;20624;-90
2023/01/22 11:16:46;;;;;;;0.80;0.80;;;2.30;99.90;;;;;;5027406;27;19926;-89
2023/01/22 11:19:20;;;;;;;0.80;0.80;;;2.40;99.90;;;;;;5042643;27;20054;-90
2023/01/22 11:21:50;;;;;;;0.80;0.80;;;2.50;99.90;;;;;;5044757;27;20460;-89
2023/01/22 11:24:32;;;;;;;0.80;0.80;;;2.70;99.90;;;;;;5049666;27;20374;-90
2023/01/22 11:27:23;;;;;;;0.80;0.80;;;2.90;99.90;;;;;;5044918;27;20054;-89
2023/01/22 11:30:27;;;;;;;0.70;0.70;;;3.00;99.90;;;;;;5041044;27;20322;-90
2023/01/22 11:32:53;;;;;;;0.80;0.80;;;2.90;99.90;;;;;;5043823;27;20040;-90
2023/01/22 11:35:37;;;;;;;0.80;0.80;;;2.90;99.90;;;;;;5065205;27;20099;-90
2023/01/22 11:38:14;;;;;;;;;;;2.70;99.90;;;;;;5051257;27;20626;-92
2023/01/22 11:41:04;;;;;;;0.80;0.80;;;2.80;99.90;;;;;;5050187;27;19927;-91
2023/01/22 11:43:54;;;;;;;0.75;0.75;;;2.90;99.90;;;;;;5028184;27;20081;-92
2023/01/22 11:46:38;;;;;;;0.80;0.80;;;2.80;99.90;;;;;;5012493;27;20104;-91
2023/01/22 11:49:24;;;;;;;0.80;0.80;;;2.90;99.90;;;;;;5020764;27;20039;-96
2023/01/22 11:52:08;;;;;;;0.70;0.70;;;3.00;99.90;;;;;;5020385;27;20039;-91
2023/01/22 11:54:49;;;;;;;0.70;0.70;;;3.10;99.90;;;;;;5023105;27;20072;-93
2023/01/22 11:57:32;;;;;;;0.80;0.80;;;3.20;99.90;;;;;;5033233;27;20051;-92
2023/01/22 12:00:20;;;;;;;0.80;0.80;;;3.20;99.90;;;;;;5033213;27;20527;-92
2023/01/22 12:03:13;;;;;;;0.80;0.80;;;3.10;99.90;;;;;;5019879;27;20120;-92
2023/01/22 12:06:05;;;;;;;0.75;0.75;;;3.00;99.90;;;;;;5027100;27;20543;-90
2023/01/22 12:09:05;;;;;;;0.70;0.70;;;2.90;99.90;;;;;;5040890;27;20094;-95
2023/01/22 12:11:44;;;;;;;0.70;0.70;;;2.90;99.90;;;;;;5024793;27;20211;-90
2023/01/22 12:14:37;;;;;;;0.70;0.70;;;2.80;99.90;;;;;;5026164;27;20090;-93
2023/01/22 12:17:10;;;;;;;0.75;0.75;;;3.00;99.90;;;;;;5025298;27;20178;-93
2023/01/22 12:19:52;;;;;;;0.80;0.80;;;3.00;99.90;;;;;;5035760;27;20656;-93
2023/01/22 12:22:37;;;;;;;0.70;0.70;;;2.80;99.90;;;;;;5034387;27;20462;-91
2023/01/22 12:25:16;;;;;;;0.70;0.70;;;2.80;99.90;;;;;;5026360;27;20134;-90
2023/01/22 12:28:16;;;;;;;0.90;0.90;;;2.80;99.90;;;;;;5027098;27;20059;-92
2023/01/22 12:30:51;;;;;;;0.70;0.70;;;2.90;99.90;;;;;;5023967;27;20076;-93
2023/01/22 12:33:22;;;;;;;0.70;0.70;;;2.90;99.90;;;;;;5032945;27;20430;-90
2023/01/22 12:35:54;;;;;;;0.80;0.80;;;2.90;99.90;;;;;;5035847;27;20340;-93
2023/01/22 12:38:41;;;;;;;0.80;0.80;;;2.90;99.90;;;;;;5041288;27;20173;-93
2023/01/22 12:41:35;;;;;;;0.80;0.80;;;2.80;99.90;;;;;;5035435;27;20035;-92
2023/01/22 12:44:13;;;;;;;0.70;0.70;;;2.80;99.90;;;;;;5055499;27;20071;-92
2023/01/22 12:47:01;;;;;;;0.80;0.80;;;2.80;99.90;;;;;;5054213;27;20493;-89
2023/01/22 12:49:30;;;;;;;0.80;0.80;;;2.70;99.90;;;;;;5052521;27;20050;-92
2023/01/22 12:52:01;;;;;;;0.70;0.70;;;2.70;99.90;;;;;;5045287;27;20043;-91
2023/01/22 12:54:37;;;;;;;0.80;0.80;;;2.80;99.90;;;;;;5056351;27;20043;-92
2023/01/22 12:57:36;;;;;;;0.80;0.80;;;2.70;99.90;;;;;;5076077;27;20043;-93
2023/01/22 13:00:23;;;;;;;0.80;0.80;;;2.80;99.90;;;;;;5017303;28;20111;-91
2023/01/22 13:02:52;;;;;;;0.70;0.70;;;2.70;99.90;;;;;;5007479;28;20043;-92
2023/01/22 13:05:36;;;;;;;0.80;0.80;;;2.70;99.90;;;;;;5027669;28;21335;-92
2023/01/22 13:08:06;;;;;;;0.75;0.75;;;2.70;99.90;;;;;;5029065;28;20067;-94
2023/01/22 13:10:36;;;;;;;0.70;0.70;;;2.80;99.90;;;;;;5033144;28;20047;-93
2023/01/22 13:13:10;;;;;;;0.80;0.80;;;2.60;99.90;;;;;;5027467;28;20060;-92
2023/01/22 13:15:54;;;;;;;0.77;0.77;;;2.60;99.90;;;;;;5017069;28;20424;-94
2023/01/22 13:18:29;;;;;;;0.80;0.80;;;2.70;99.90;;;;;;5021390;28;20102;-94
2023/01/22 13:21:10;;;;;;;0.75;0.75;;;2.80;99.90;;;;;;5019247;28;20051;-93
2023/01/22 13:23:42;;;;;;;0.70;0.70;;;2.70;99.90;;;;;;5016721;28;20288;-92
2023/01/22 13:26:16;;;;;;;0.80;0.80;;;2.80;99.90;;;;;;5019695;28;20052;-91
2023/01/22 13:28:57;;;;;;;0.80;0.80;;;2.80;99.90;;;;;;5016303;28;20048;-94
2023/01/22 13:31:24;;;;;;;0.70;0.70;;;2.70;99.90;;;;;;5042524;27;20047;-92